KBTL

W K Kellogg Airport

Battle Creek, Michigan, USA
METAR KBTL 190853Z AUTO 01007KT 10SM FEW006 18/17 A3001 RMK AO2 SLP155 T01780167 51004
Observed Flight Rules
Sep-19 @ 08:53 UTC (11 minutes ago) Visual Flight Rules
Wind Visibility Clouds
10° at 7 knots 10 miles
  • Few at 600' AGL
Temperatures Readings
Current 18°C / 64°F
Dewpoint 17°C / 63°F
Humidity 94%
Altimeter 30.01" Hg
Pressure 1015.5 hPa
Elevation 290
METAR KBTL 190853Z AUTO 01007KT 10SM FEW006 18/17 A3001 RMK AO2 SLP155 T01780167 51004
Observed Flight Rules
Sep-19 @ 08:53 UTC
(11 minutes ago)
VFR
Wind Visibility
10° at 7 knots 10 miles
Clouds
  • Few at 600' AGL
Temperature Dewpoint
18°C / 64°F 17°C / 63°F
Humidity Altimeter Pressure
94% 30.01" Hg 1015.5 hPa